Latest Weather Observations for Penrith

IDN60801

Issued at 10:32 pm EST Saturday 23 September 2017 (issued every 30 minutes, with the page automatically refreshed every 10 minutes)

About weather observations | Map of weather stations | Latest weather observations for NSW | Other Formats
Station Details ID: 067113 Name: PENRITH LAKES AWS Lat: -33.72 Lon: 150.68 Height: 24.7 m
Data from the previous 72 hours. | See also: Recent months at Penrith
Date/Time
EST
Temp
°C
App
Temp
°C
Dew
Point
°C
Rel
Hum
%
Delta-T
°C
Wind Press
QNH
hPa
Press
MSL
hPa
Rain since
9am
mm
Dir  Spd
km/h
Gust
km/h
Spd
kts
Gust
kts
23/10:30pm 26.4 21.3 4.2 24 11.1 N 20 30 11 16 - - 0.0
23/10:00pm 23.0 20.1 6.3 34 8.5 N 11 13 6 7 - - 0.0
23/09:30pm 22.6 20.0 7.6 38 7.8 N 11 15 6 8 - - 0.0
23/09:00pm 26.8 21.6 2.7 21 11.8 N 19 20 10 11 - - 0.0
23/08:30pm 26.8 22.1 3.3 22 11.6 N 17 19 9 10 - - 0.0
23/08:00pm 27.2 22.1 3.0 21 12.0 N 19 20 10 11 - - 0.0
23/07:30pm 27.8 22.7 2.8 20 12.4 N 19 20 10 11 - - 0.0
23/07:00pm 27.6 22.5 3.3 21 12.1 N 19 20 10 11 - - 0.0
23/06:30pm 27.6 23.2 6.4 26 11.1 NNW 19 26 10 14 - - 0.0
23/06:00pm 31.0 25.2 2.3 16 14.4 NNW 22 33 12 18 - - 0.0
23/05:30pm 32.0 25.0 2.1 15 15.0 NNW 28 37 15 20 - - 0.0
23/05:00pm 31.9 25.6 3.8 17 14.5 NNW 26 32 14 17 - - 0.0
23/04:30pm 34.4 26.5 -1.6 10 17.3 NNW 30 41 16 22 - - 0.0
23/04:00pm 34.7 28.3 -1.4 10 17.4 NNW 22 35 12 19 - - 0.0
23/03:41pm 35.2 27.9 0.3 11 17.4 NNW 28 48 15 26 - - 0.0
23/03:30pm 35.3 29.6 -0.9 10 17.7 NNW 19 28 10 15 - - 0.0
23/03:00pm 36.3 29.3 -0.2 10 18.1 NNW 26 37 14 20 - - 0.0
23/02:30pm 37.1 29.7 -1.0 9 18.8 NNW 28 37 15 20 - - 0.0
23/02:00pm 35.8 30.5 2.0 12 17.3 NNW 19 30 10 16 - - 0.0
23/01:30pm 35.7 29.1 1.9 12 17.3 N 26 41 14 22 - - 0.0
23/01:00pm 34.5 29.6 5.0 16 15.8 NNE 20 30 11 16 - - 0.0
23/12:30pm 32.8 28.3 6.2 19 14.3 NNE 19 39 10 21 - - 0.0
23/12:28pm 32.9 28.7 5.5 18 14.6 NNE 17 39 9 21 - - 0.0
23/12:00pm 27.7 26.1 8.6 30 10.4 NNW 7 11 4 6 - - 0.0
23/11:30am 24.3 22.6 7.4 34 8.9 NNW 6 9 3 5 - - 0.0
23/11:00am 20.5 18.5 6.1 39 7.2 NNW 6 6 3 3 - - 0.0
23/10:30am 19.3 17.4 5.0 39 6.9 NW 4 6 2 3 - - 0.0
23/10:00am 17.6 16.8 6.5 48 5.5 CALM 0 2 0 1 - - 0.0
23/09:30am 16.7 15.6 6.8 52 4.9 S 2 6 1 3 - - 0.0
23/09:00am 15.1 14.2 6.1 55 4.3 CALM 0 0 0 0 - - 0.0
23/08:30am 14.2 12.7 6.6 60 3.7 S 4 6 2 3 - - 0.0
23/08:00am 13.2 11.6 6.3 63 3.3 WSW 4 6 2 3 - - 0.0
23/07:30am 12.3 10.6 6.1 66 2.9 S 4 6 2 3 - - 0.0
23/07:00am 11.4 10.6 6.5 72 2.3 CALM 0 0 0 0 - - 0.0
23/06:30am 11.4 10.4 5.7 68 2.6 CALM 0 0 0 0 - - 0.0
23/06:00am 10.6 9.2 5.6 71 2.3 S 2 4 1 2 - - 0.0
23/05:30am 10.5 8.9 6.3 75 2.0 S 4 6 2 3 - - 0.0
23/05:00am 10.7 10.0 8.6 87 1.0 SSE 2 4 1 2 - - 0.0
23/04:30am 11.0 10.6 9.6 91 0.7 SSE 2 4 1 2 - - 0.0
23/04:00am 11.4 11.5 10.1 92 0.7 CALM 0 0 0 0 - - 0.0
23/03:30am 12.0 12.0 9.7 86 1.2 CALM 0 0 0 0 - - 0.0
23/03:00am 12.4 12.5 10.1 86 1.2 CALM 0 0 0 0 - - 0.0
23/02:30am 11.7 10.1 7.8 77 1.9 NNE 6 13 3 7 - - 0.0
23/02:00am 13.6 12.8 6.7 63 3.3 CALM 0 0 0 0 - - 0.0
23/01:30am 13.0 11.5 6.6 65 3.1 SSE 4 7 2 4 - - 0.0
23/01:00am 13.2 12.0 7.9 70 2.6 SE 4 9 2 5 - - 0.0
23/12:30am 13.7 13.2 9.2 74 2.3 W 2 6 1 3 - - 0.0
23/12:00am 13.8 13.6 10.4 80 1.8 SSE 2 4 1 2 - - 0.0
 
Date/Time
EST
Temp
°C
App
Temp
°C
Dew
Point
°C
Rel
Hum
%
Delta-T
°C
Wind Press
QNH
hPa
Press
MSL
hPa
Rain since
9am
mm
Dir  Spd
km/h
Gust
km/h
Spd
kts
Gust
kts
22/11:30pm 13.7 12.9 9.6 76 2.1 SSE 4 4 2 2 - - 0.0
22/11:00pm 15.3 14.6 9.9 70 2.8 NW 4 6 2 3 - - 0.0
22/10:30pm 15.9 15.5 9.8 67 3.2 W 2 4 1 2 - - 0.0
22/10:00pm 16.1 15.3 8.1 59 4.0 E 2 6 1 3 - - 0.0
22/09:30pm 17.1 16.5 9.0 59 4.2 S 2 4 1 2 - - 0.0
22/09:00pm 17.9 17.1 9.5 58 4.4 WSW 4 6 2 3 - - 0.0
22/08:30pm 18.0 17.7 8.6 54 4.9 CALM 0 4 0 2 - - 0.0
22/08:00pm 18.3 18.5 10.4 60 4.2 CALM 0 0 0 0 - - 0.0
22/07:30pm 21.2 20.1 5.1 35 7.9 CALM 0 0 0 0 - - 0.0
22/07:00pm 21.2 19.1 5.9 37 7.7 WSW 6 7 3 4 - - 0.0
22/06:30pm 22.5 20.9 6.3 35 8.2 SSW 4 6 2 3 - - 0.0
22/06:00pm 25.5 22.9 4.0 25 10.7 SE 7 11 4 6 - - 0.0
22/05:30pm 26.4 24.5 4.8 25 11.0 WSW 4 6 2 3 - - 0.0
22/05:00pm 28.9 25.9 0.6 16 13.6 SE 6 9 3 5 - - 0.0
22/04:30pm 30.5 27.5 -2.1 12 15.1 ESE 4 6 2 3 - - 0.0
22/04:00pm 30.8 27.7 0.2 14 14.8 SE 6 9 3 5 - - 0.0
22/03:30pm 30.8 27.4 -1.9 12 15.2 ESE 6 9 3 5 - - 0.0
22/03:00pm 31.6 28.7 -1.2 12 15.5 N 4 11 2 6 - - 0.0
22/02:30pm 31.1 27.9 -0.5 13 15.1 NE 6 13 3 7 - - 0.0
22/02:00pm 31.0 27.6 -0.6 13 15.0 NE 7 15 4 8 - - 0.0
22/01:30pm 30.6 27.5 0.1 14 14.7 NE 6 11 3 6 - - 0.0
22/01:00pm 29.5 25.7 -0.8 14 14.2 NE 9 17 5 9 - - 0.0
22/12:30pm 29.0 25.1 -1.2 14 14.0 NE 9 17 5 9 - - 0.0
22/12:00pm 28.5 25.7 1.9 18 13.0 N 6 11 3 6 - - 0.0
22/11:30am 26.2 23.3 4.6 25 10.9 NNW 9 11 5 6 - - 0.0
22/11:00am 24.8 22.4 4.5 27 10.1 N 6 9 3 5 - - 0.0
22/10:30am 23.6 21.7 5.0 30 9.3 NNW 4 7 2 4 - - 0.0
22/10:00am 22.0 20.1 5.0 33 8.4 ENE 4 9 2 5 - - 0.0
22/09:30am 19.6 17.5 5.6 40 6.9 N 6 9 3 5 - - 0.0
22/09:00am 17.4 15.5 7.7 53 4.9 NNW 7 9 4 5 - - 0.0
22/08:30am 16.0 14.7 7.5 57 4.2 N 4 6 2 3 - - 0.0
22/08:00am 13.3 11.6 5.9 61 3.5 NNE 4 6 2 3 - - 0.0
22/07:30am 11.2 9.5 5.9 70 2.5 N 4 6 2 3 - - 0.0
22/07:00am 9.5 7.9 6.4 81 1.4 SSW 4 7 2 4 - - 0.0
22/06:30am 8.0 6.1 4.8 80 1.4 SE 4 4 2 2 - - 0.0
22/06:00am 7.7 5.8 4.8 82 1.3 SW 4 6 2 3 - - 0.0
22/05:30am 8.3 7.1 6.3 87 0.9 S 2 2 1 1 - - 0.0
22/05:00am 8.1 6.3 5.2 82 1.3 SSW 4 6 2 3 - - 0.0
22/04:30am 8.7 7.9 6.7 87 0.9 CALM 0 4 0 2 - - 0.0
22/04:00am 8.9 7.6 7.8 93 0.5 SSE 4 6 2 3 - - 0.0
22/03:30am 9.1 8.2 6.0 81 1.4 CALM 0 2 0 1 - - 0.0
22/03:00am 9.4 7.4 6.1 80 1.5 SSW 6 7 3 4 - - 0.0
22/02:30am 10.0 8.8 8.1 88 0.9 S 4 4 2 2 - - 0.0
22/02:00am 10.2 8.9 7.6 84 1.2 SSW 4 6 2 3 - - 0.0
22/01:30am 10.4 8.8 8.2 86 1.1 S 6 7 3 4 - - 0.0
22/01:00am 11.4 10.9 9.5 88 1.0 NW 2 2 1 1 - - 0.0
22/12:30am 12.4 11.3 8.5 77 1.9 NW 4 4 2 2 - - 0.0
22/12:00am 11.9 11.1 9.6 86 1.2 WNW 4 6 2 3 - - 0.0
 
Date/Time
EST
Temp
°C
App
Temp
°C
Dew
Point
°C
Rel
Hum
%
Delta-T
°C
Wind Press
QNH
hPa
Press
MSL
hPa
Rain since
9am
mm
Dir  Spd
km/h
Gust
km/h
Spd
kts
Gust
kts
21/11:30pm 12.5 12.5 9.7 83 1.4 CALM 0 0 0 0 - - 0.0
21/11:00pm 12.4 11.6 9.6 83 1.4 NNE 4 6 2 3 - - 0.0
21/10:30pm 13.4 13.5 10.0 80 1.8 CALM 0 0 0 0 - - 0.0
21/10:00pm 14.0 14.1 11.5 85 1.3 S 2 6 1 3 - - 0.0
21/09:30pm 14.5 15.1 11.8 84 1.5 CALM 0 0 0 0 - - 0.0
21/09:00pm 15.4 15.8 11.4 77 2.1 CALM 0 0 0 0 - - 0.0
21/08:30pm 17.1 17.3 10.7 66 3.4 CALM 0 0 0 0 - - 0.0
21/08:00pm 17.5 17.1 9.9 61 4.0 SSW 2 6 1 3 - - 0.0
21/07:30pm 18.2 16.9 9.8 58 4.4 SSW 7 11 4 6 - - 0.0
21/07:00pm 19.3 19.4 10.0 55 5.0 CALM 0 2 0 1 - - 0.0
21/06:30pm 20.3 18.7 8.0 45 6.4 SW 6 6 3 3 - - 0.0
21/06:00pm 21.0 19.5 8.6 45 6.5 SSW 6 9 3 5 - - 0.0
21/05:30pm 23.7 22.1 8.2 37 8.2 SSE 6 11 3 6 - - 0.0
21/05:00pm 25.6 23.9 7.7 32 9.5 WSW 6 7 3 4 - - 0.0
21/04:30pm 27.0 25.1 6.9 28 10.6 SW 6 7 3 4 - - 0.0
21/04:00pm 27.3 25.3 6.1 26 11.1 S 6 7 3 4 - - 0.0
21/03:30pm 27.3 25.6 6.1 26 11.1 SW 4 7 2 4 - - 0.0
21/03:00pm 27.3 25.6 6.1 26 11.1 WNW 4 6 2 3 - - 0.0
21/02:30pm 26.5 24.9 6.5 28 10.5 SW 4 6 2 3 - - 0.0
21/02:00pm 25.7 24.2 6.8 30 9.9 WSW 4 6 2 3 - - 0.0
21/01:30pm 24.6 22.9 7.7 34 8.9 SW 6 7 3 4 - - 0.0
21/01:00pm 23.5 22.2 7.6 36 8.3 WSW 4 6 2 3 - - 0.0
21/12:30pm 22.7 21.0 7.7 38 7.8 WSW 6 11 3 6 - - 0.0
21/12:00pm 21.9 20.5 7.3 39 7.5 W 4 6 2 3 - - 0.0
21/11:30am 20.3 18.7 6.3 40 7.0 SSW 4 7 2 4 - - 0.0
21/11:00am 19.2 17.1 6.0 42 6.5 NNW 6 9 3 5 - - 0.0
21/10:30am 17.9 16.7 7.9 52 5.1 SW 4 7 2 4 - - 0.0
21/10:00am 16.3 15.1 8.0 58 4.2 SSW 4 6 2 3 - - 0.0
21/09:30am 15.3 14.2 8.5 64 3.4 WNW 4 6 2 3 - - 0.0
21/09:00am 14.3 13.5 8.3 67 3.0 NNE 2 6 1 3 - - 0.0
21/08:30am 12.6 12.2 8.3 75 2.1 CALM 0 4 0 2 - - 0.0
21/08:00am 11.1 10.4 8.5 84 1.3 NW 2 6 1 3 - - 0.0
21/07:30am 9.7 9.4 8.5 92 0.6 CALM 0 0 0 0 - - 0.0
21/07:00am 8.9 8.6 8.6 98 0.1 CALM 0 0 0 0 - - 0.0
21/06:30am 7.5 6.9 7.2 98 0.1 CALM 0 0 0 0 - - 0.0
21/06:00am 7.3 5.8 7.0 98 0.1 W 4 6 2 3 - - 0.0
21/05:30am 7.2 6.5 6.9 98 0.1 CALM 0 0 0 0 - - 0.0
21/05:00am 7.6 7.0 7.3 98 0.1 CALM 0 0 0 0 - - 0.0
21/04:30am 7.7 7.1 7.4 98 0.1 CALM 0 0 0 0 - - 0.0
21/04:00am 8.1 7.6 7.8 98 0.1 CALM 0 0 0 0 - - 0.0
21/03:30am 8.4 8.0 8.1 98 0.1 CALM 0 0 0 0 - - 0.0
21/03:00am 8.4 8.0 8.1 98 0.1 CALM 0 0 0 0 - - 0.0
21/02:30am 8.7 7.6 8.4 98 0.1 SSE 4 4 2 2 - - 0.0
21/02:00am 9.0 8.6 8.4 96 0.3 CALM 0 0 0 0 - - 0.0
21/01:30am 9.3 9.0 8.7 96 0.3 CALM 0 0 0 0 - - 0.0
21/01:00am 9.4 8.6 8.3 93 0.5 SSW 2 4 1 2 - - 0.0
21/12:30am 9.8 9.5 8.7 93 0.5 CALM 0 0 0 0 - - 0.0
21/12:00am 10.2 9.9 8.8 91 0.7 CALM 0 0 0 0 - - 0.0
 
Date/Time
EST
Temp
°C
App
Temp
°C
Dew
Point
°C
Rel
Hum
%
Delta-T
°C
Wind Press
QNH
hPa
Press
MSL
hPa
Rain since
9am
mm
Dir  Spd
km/h
Gust
km/h
Spd
kts
Gust
kts
20/11:30pm 10.5 10.2 8.8 89 0.8 CALM 0 0 0 0 - - 0.0
20/11:00pm 10.8 10.5 8.7 87 1.0 CALM 0 0 0 0 - - 0.0

Other Formats:

Comma delimited format used in spreadsheet applications
http://www.bom.gov.au/fwo/IDN60801/IDN60801.94763.axf

JavaScript Object Notation format (JSON) in row-major order
http://www.bom.gov.au/fwo/IDN60801/IDN60801.94763.json